sensor_id;sensor_type;location;lat;lon;timestamp;P1;durP1;ratioP1;P2;durP2;ratioP2
59418;SDS011;45224;50.904;6.038;2022-12-07T00:00:47;40.08;;;20.13;;
59418;SDS011;45224;50.904;6.038;2022-12-07T00:02:18;39.83;;;20.23;;
59418;SDS011;45224;50.904;6.038;2022-12-07T00:03:49;39.00;;;20.27;;
59418;SDS011;45224;50.904;6.038;2022-12-07T00:05:21;38.47;;;20.38;;
59418;SDS011;45224;50.904;6.038;2022-12-07T00:06:52;36.57;;;18.37;;
59418;SDS011;45224;50.904;6.038;2022-12-07T00:08:23;39.78;;;21.35;;
59418;SDS011;45224;50.904;6.038;2022-12-07T00:09:53;38.10;;;19.60;;
59418;SDS011;45224;50.904;6.038;2022-12-07T00:11:24;34.33;;;17.27;;
59418;SDS011;45224;50.904;6.038;2022-12-07T00:12:55;36.45;;;19.77;;
59418;SDS011;45224;50.904;6.038;2022-12-07T00:14:25;36.07;;;19.20;;
59418;SDS011;45224;50.904;6.038;2022-12-07T00:15:59;35.87;;;19.27;;
59418;SDS011;45224;50.904;6.038;2022-12-07T00:17:30;42.70;;;20.83;;
59418;SDS011;45224;50.904;6.038;2022-12-07T00:19:02;38.58;;;19.67;;
59418;SDS011;45224;50.904;6.038;2022-12-07T00:20:33;38.53;;;19.42;;
59418;SDS011;45224;50.904;6.038;2022-12-07T00:22:04;39.47;;;19.23;;
59418;SDS011;45224;50.904;6.038;2022-12-07T00:23:34;35.30;;;19.87;;
59418;SDS011;45224;50.904;6.038;2022-12-07T00:25:05;35.37;;;19.20;;
59418;SDS011;45224;50.904;6.038;2022-12-07T00:26:36;36.53;;;19.17;;
59418;SDS011;45224;50.904;6.038;2022-12-07T00:28:09;35.33;;;18.98;;
59418;SDS011;45224;50.904;6.038;2022-12-07T00:29:41;38.33;;;20.02;;
59418;SDS011;45224;50.904;6.038;2022-12-07T00:31:12;49.93;;;22.23;;
59418;SDS011;45224;50.904;6.038;2022-12-07T00:32:43;38.47;;;19.83;;
59418;SDS011;45224;50.904;6.038;2022-12-07T00:34:17;47.13;;;22.40;;
59418;SDS011;45224;50.904;6.038;2022-12-07T00:35:54;38.05;;;20.60;;
59418;SDS011;45224;50.904;6.038;2022-12-07T00:37:26;38.83;;;21.38;;
59418;SDS011;45224;50.904;6.038;2022-12-07T00:38:59;42.73;;;20.63;;
59418;SDS011;45224;50.904;6.038;2022-12-07T00:40:30;41.75;;;21.27;;
59418;SDS011;45224;50.904;6.038;2022-12-07T00:42:00;37.50;;;20.77;;
59418;SDS011;45224;50.904;6.038;2022-12-07T00:43:31;38.63;;;20.27;;
59418;SDS011;45224;50.904;6.038;2022-12-07T00:45:02;50.40;;;23.15;;
59418;SDS011;45224;50.904;6.038;2022-12-07T00:46:32;36.40;;;20.58;;
59418;SDS011;45224;50.904;6.038;2022-12-07T00:48:03;36.63;;;19.93;;
59418;SDS011;45224;50.904;6.038;2022-12-07T00:49:33;32.27;;;18.70;;
59418;SDS011;45224;50.904;6.038;2022-12-07T00:51:04;38.00;;;21.17;;
59418;SDS011;45224;50.904;6.038;2022-12-07T00:52:35;37.53;;;20.35;;
59418;SDS011;45224;50.904;6.038;2022-12-07T00:54:05;35.77;;;19.57;;
59418;SDS011;45224;50.904;6.038;2022-12-07T00:55:36;43.53;;;21.00;;
59418;SDS011;45224;50.904;6.038;2022-12-07T00:57:07;36.35;;;19.73;;
59418;SDS011;45224;50.904;6.038;2022-12-07T00:58:37;41.93;;;20.37;;
59418;SDS011;45224;50.904;6.038;2022-12-07T01:00:08;34.93;;;19.63;;
59418;SDS011;45224;50.904;6.038;2022-12-07T01:01:38;38.33;;;19.95;;
59418;SDS011;45224;50.904;6.038;2022-12-07T01:03:09;40.30;;;20.23;;
59418;SDS011;45224;50.904;6.038;2022-12-07T01:04:41;36.45;;;19.00;;
59418;SDS011;45224;50.904;6.038;2022-12-07T01:06:15;38.47;;;19.60;;
59418;SDS011;45224;50.904;6.038;2022-12-07T01:07:47;41.63;;;21.17;;
59418;SDS011;45224;50.904;6.038;2022-12-07T01:09:17;38.93;;;20.20;;
59418;SDS011;45224;50.904;6.038;2022-12-07T01:10:48;36.37;;;19.77;;
59418;SDS011;45224;50.904;6.038;2022-12-07T01:12:19;36.30;;;19.27;;
59418;SDS011;45224;50.904;6.038;2022-12-07T01:13:54;34.53;;;19.70;;
59418;SDS011;45224;50.904;6.038;2022-12-07T01:15:25;39.08;;;20.23;;
59418;SDS011;45224;50.904;6.038;2022-12-07T01:16:56;39.47;;;21.47;;
59418;SDS011;45224;50.904;6.038;2022-12-07T01:18:27;34.57;;;20.13;;
59418;SDS011;45224;50.904;6.038;2022-12-07T01:19:59;41.22;;;22.08;;
59418;SDS011;45224;50.904;6.038;2022-12-07T01:21:30;40.73;;;21.43;;
59418;SDS011;45224;50.904;6.038;2022-12-07T01:23:07;43.30;;;19.92;;
59418;SDS011;45224;50.904;6.038;2022-12-07T01:24:37;41.13;;;21.83;;
59418;SDS011;45224;50.904;6.038;2022-12-07T01:26:11;39.17;;;21.20;;
59418;SDS011;45224;50.904;6.038;2022-12-07T01:27:42;42.85;;;22.02;;
59418;SDS011;45224;50.904;6.038;2022-12-07T01:29:13;43.50;;;24.67;;
59418;SDS011;45224;50.904;6.038;2022-12-07T01:30:43;40.13;;;22.67;;
59418;SDS011;45224;50.904;6.038;2022-12-07T01:32:13;47.27;;;23.23;;
59418;SDS011;45224;50.904;6.038;2022-12-07T01:33:45;45.33;;;23.20;;
59418;SDS011;45224;50.904;6.038;2022-12-07T01:35:17;43.40;;;22.38;;
59418;SDS011;45224;50.904;6.038;2022-12-07T01:36:47;42.70;;;23.03;;
59418;SDS011;45224;50.904;6.038;2022-12-07T01:38:18;45.30;;;23.73;;
59418;SDS011;45224;50.904;6.038;2022-12-07T01:39:49;45.67;;;24.50;;
59418;SDS011;45224;50.904;6.038;2022-12-07T01:41:20;48.97;;;23.83;;
59418;SDS011;45224;50.904;6.038;2022-12-07T01:42:51;48.72;;;25.40;;
59418;SDS011;45224;50.904;6.038;2022-12-07T01:44:22;44.37;;;23.77;;
59418;SDS011;45224;50.904;6.038;2022-12-07T01:45:57;53.25;;;25.25;;
59418;SDS011;45224;50.904;6.038;2022-12-07T01:47:28;49.35;;;24.08;;
59418;SDS011;45224;50.904;6.038;2022-12-07T01:48:58;48.57;;;23.77;;
59418;SDS011;45224;50.904;6.038;2022-12-07T01:52:09;49.03;;;24.55;;
59418;SDS011;45224;50.904;6.038;2022-12-07T01:53:53;50.38;;;25.15;;
59418;SDS011;45224;50.904;6.038;2022-12-07T01:55:24;50.30;;;23.85;;
59418;SDS011;45224;50.904;6.038;2022-12-07T01:56:55;48.88;;;23.92;;
59418;SDS011;45224;50.904;6.038;2022-12-07T01:58:27;46.55;;;23.98;;
59418;SDS011;45224;50.904;6.038;2022-12-07T01:59:58;45.88;;;23.00;;
59418;SDS011;45224;50.904;6.038;2022-12-07T02:01:42;49.30;;;23.73;;
59418;SDS011;45224;50.904;6.038;2022-12-07T02:03:15;49.90;;;23.27;;
59418;SDS011;45224;50.904;6.038;2022-12-07T02:04:50;53.15;;;25.58;;
59418;SDS011;45224;50.904;6.038;2022-12-07T02:06:24;48.33;;;24.20;;
59418;SDS011;45224;50.904;6.038;2022-12-07T02:07:56;50.45;;;25.48;;
59418;SDS011;45224;50.904;6.038;2022-12-07T02:09:27;48.90;;;23.60;;
59418;SDS011;45224;50.904;6.038;2022-12-07T02:10:58;52.70;;;25.03;;
59418;SDS011;45224;50.904;6.038;2022-12-07T02:12:30;51.45;;;24.73;;
59418;SDS011;45224;50.904;6.038;2022-12-07T02:14:00;53.77;;;25.70;;
59418;SDS011;45224;50.904;6.038;2022-12-07T02:15:44;54.33;;;26.90;;
59418;SDS011;45224;50.904;6.038;2022-12-07T02:18:14;49.30;;;23.98;;
59418;SDS011;45224;50.904;6.038;2022-12-07T02:21:45;47.38;;;22.42;;
59418;SDS011;45224;50.904;6.038;2022-12-07T02:25:39;52.33;;;24.33;;
59418;SDS011;45224;50.904;6.038;2022-12-07T02:27:45;53.53;;;24.45;;
59418;SDS011;45224;50.904;6.038;2022-12-07T02:31:10;45.22;;;24.02;;
59418;SDS011;45224;50.904;6.038;2022-12-07T02:34:39;48.80;;;23.00;;
59418;SDS011;45224;50.904;6.038;2022-12-07T02:36:28;47.22;;;23.23;;
59418;SDS011;45224;50.904;6.038;2022-12-07T02:41:29;51.20;;;22.95;;
59418;SDS011;45224;50.904;6.038;2022-12-07T02:44:36;48.27;;;23.57;;
59418;SDS011;45224;50.904;6.038;2022-12-07T02:46:08;51.97;;;24.67;;
59418;SDS011;45224;50.904;6.038;2022-12-07T02:47:43;48.13;;;24.05;;
59418;SDS011;45224;50.904;6.038;2022-12-07T02:49:15;52.60;;;26.25;;
59418;SDS011;45224;50.904;6.038;2022-12-07T02:50:51;53.95;;;24.80;;
59418;SDS011;45224;50.904;6.038;2022-12-07T02:52:22;53.63;;;26.02;;
59418;SDS011;45224;50.904;6.038;2022-12-07T02:53:53;49.20;;;24.03;;
59418;SDS011;45224;50.904;6.038;2022-12-07T02:55:26;52.53;;;24.53;;
59418;SDS011;45224;50.904;6.038;2022-12-07T02:59:19;49.85;;;24.13;;
59418;SDS011;45224;50.904;6.038;2022-12-07T03:03:11;51.90;;;23.33;;
59418;SDS011;45224;50.904;6.038;2022-12-07T03:05:06;51.15;;;25.40;;
59418;SDS011;45224;50.904;6.038;2022-12-07T03:06:53;61.20;;;24.98;;
59418;SDS011;45224;50.904;6.038;2022-12-07T03:12:09;55.00;;;25.07;;
59418;SDS011;45224;50.904;6.038;2022-12-07T03:13:59;51.58;;;23.55;;
59418;SDS011;45224;50.904;6.038;2022-12-07T03:15:40;48.25;;;22.92;;
59418;SDS011;45224;50.904;6.038;2022-12-07T03:17:18;57.53;;;26.55;;
59418;SDS011;45224;50.904;6.038;2022-12-07T03:20:39;55.65;;;24.73;;
59418;SDS011;45224;50.904;6.038;2022-12-07T03:22:14;59.15;;;26.90;;
59418;SDS011;45224;50.904;6.038;2022-12-07T03:23:46;60.83;;;27.70;;
59418;SDS011;45224;50.904;6.038;2022-12-07T03:25:21;60.47;;;25.75;;
59418;SDS011;45224;50.904;6.038;2022-12-07T03:26:53;49.63;;;23.80;;
59418;SDS011;45224;50.904;6.038;2022-12-07T03:28:33;58.08;;;26.58;;
59418;SDS011;45224;50.904;6.038;2022-12-07T03:30:10;56.42;;;27.00;;
59418;SDS011;45224;50.904;6.038;2022-12-07T03:31:46;57.90;;;26.55;;
59418;SDS011;45224;50.904;6.038;2022-12-07T03:33:29;58.15;;;26.30;;
59418;SDS011;45224;50.904;6.038;2022-12-07T03:35:14;50.83;;;24.95;;
59418;SDS011;45224;50.904;6.038;2022-12-07T03:36:54;46.53;;;23.42;;
59418;SDS011;45224;50.904;6.038;2022-12-07T03:38:31;54.25;;;25.40;;
59418;SDS011;45224;50.904;6.038;2022-12-07T03:40:29;56.03;;;25.35;;
59418;SDS011;45224;50.904;6.038;2022-12-07T03:42:10;52.90;;;26.13;;
59418;SDS011;45224;50.904;6.038;2022-12-07T03:45:12;51.60;;;25.02;;
59418;SDS011;45224;50.904;6.038;2022-12-07T03:46:45;47.80;;;24.33;;
59418;SDS011;45224;50.904;6.038;2022-12-07T03:48:36;52.92;;;24.77;;
59418;SDS011;45224;50.904;6.038;2022-12-07T03:50:21;53.88;;;25.40;;
59418;SDS011;45224;50.904;6.038;2022-12-07T03:54:05;56.10;;;25.40;;
59418;SDS011;45224;50.904;6.038;2022-12-07T03:55:42;55.83;;;24.42;;
59418;SDS011;45224;50.904;6.038;2022-12-07T03:57:15;53.70;;;25.65;;
59418;SDS011;45224;50.904;6.038;2022-12-07T03:58:48;46.25;;;22.60;;
59418;SDS011;45224;50.904;6.038;2022-12-07T04:00:19;52.13;;;23.77;;
59418;SDS011;45224;50.904;6.038;2022-12-07T04:01:54;49.63;;;23.58;;
59418;SDS011;45224;50.904;6.038;2022-12-07T04:03:26;53.53;;;25.92;;
59418;SDS011;45224;50.904;6.038;2022-12-07T04:04:56;49.80;;;23.73;;
59418;SDS011;45224;50.904;6.038;2022-12-07T04:06:27;50.60;;;25.17;;
59418;SDS011;45224;50.904;6.038;2022-12-07T04:07:57;51.67;;;24.97;;
59418;SDS011;45224;50.904;6.038;2022-12-07T04:09:28;54.60;;;26.17;;
59418;SDS011;45224;50.904;6.038;2022-12-07T04:10:58;50.07;;;24.30;;
59418;SDS011;45224;50.904;6.038;2022-12-07T04:12:28;51.13;;;24.87;;
59418;SDS011;45224;50.904;6.038;2022-12-07T04:13:59;52.73;;;23.83;;
59418;SDS011;45224;50.904;6.038;2022-12-07T04:15:48;51.70;;;25.10;;
59418;SDS011;45224;50.904;6.038;2022-12-07T04:17:18;49.73;;;23.97;;
59418;SDS011;45224;50.904;6.038;2022-12-07T04:18:49;53.73;;;24.27;;
59418;SDS011;45224;50.904;6.038;2022-12-07T04:20:19;55.10;;;23.73;;
59418;SDS011;45224;50.904;6.038;2022-12-07T04:21:50;52.07;;;25.50;;
59418;SDS011;45224;50.904;6.038;2022-12-07T04:23:20;55.87;;;25.97;;
59418;SDS011;45224;50.904;6.038;2022-12-07T04:24:50;55.63;;;25.33;;
59418;SDS011;45224;50.904;6.038;2022-12-07T04:26:21;54.93;;;23.70;;
59418;SDS011;45224;50.904;6.038;2022-12-07T04:27:51;51.43;;;23.77;;
59418;SDS011;45224;50.904;6.038;2022-12-07T04:29:22;56.10;;;25.07;;
59418;SDS011;45224;50.904;6.038;2022-12-07T04:30:53;56.47;;;24.63;;
59418;SDS011;45224;50.904;6.038;2022-12-07T04:32:23;53.33;;;24.63;;
59418;SDS011;45224;50.904;6.038;2022-12-07T04:33:54;48.73;;;23.80;;
59418;SDS011;45224;50.904;6.038;2022-12-07T04:35:24;49.63;;;24.60;;
59418;SDS011;45224;50.904;6.038;2022-12-07T04:36:55;51.03;;;23.77;;
59418;SDS011;45224;50.904;6.038;2022-12-07T04:38:25;59.43;;;25.30;;
59418;SDS011;45224;50.904;6.038;2022-12-07T04:39:55;50.03;;;24.43;;
59418;SDS011;45224;50.904;6.038;2022-12-07T04:41:26;49.13;;;24.37;;
59418;SDS011;45224;50.904;6.038;2022-12-07T04:42:57;43.63;;;22.05;;
59418;SDS011;45224;50.904;6.038;2022-12-07T04:44:27;53.83;;;25.47;;
59418;SDS011;45224;50.904;6.038;2022-12-07T04:47:29;51.80;;;23.58;;
59418;SDS011;45224;50.904;6.038;2022-12-07T04:49:00;52.00;;;24.27;;
59418;SDS011;45224;50.904;6.038;2022-12-07T04:50:30;47.77;;;22.77;;
59418;SDS011;45224;50.904;6.038;2022-12-07T04:52:00;59.20;;;24.10;;
59418;SDS011;45224;50.904;6.038;2022-12-07T04:53:31;47.70;;;23.03;;
59418;SDS011;45224;50.904;6.038;2022-12-07T04:55:01;51.67;;;21.90;;
59418;SDS011;45224;50.904;6.038;2022-12-07T04:56:32;50.00;;;24.67;;
59418;SDS011;45224;50.904;6.038;2022-12-07T04:58:04;47.47;;;22.50;;
59418;SDS011;45224;50.904;6.038;2022-12-07T04:59:35;52.57;;;24.57;;
59418;SDS011;45224;50.904;6.038;2022-12-07T05:01:05;55.87;;;24.40;;
59418;SDS011;45224;50.904;6.038;2022-12-07T05:02:35;49.03;;;22.87;;
59418;SDS011;45224;50.904;6.038;2022-12-07T05:04:06;50.83;;;22.77;;
59418;SDS011;45224;50.904;6.038;2022-12-07T05:05:39;45.77;;;20.87;;
59418;SDS011;45224;50.904;6.038;2022-12-07T05:07:11;54.00;;;23.02;;
59418;SDS011;45224;50.904;6.038;2022-12-07T05:08:42;43.83;;;21.83;;
59418;SDS011;45224;50.904;6.038;2022-12-07T05:10:13;50.85;;;23.25;;
59418;SDS011;45224;50.904;6.038;2022-12-07T05:11:43;45.53;;;21.73;;
59418;SDS011;45224;50.904;6.038;2022-12-07T05:13:14;47.60;;;22.63;;
59418;SDS011;45224;50.904;6.038;2022-12-07T05:14:44;46.00;;;21.77;;
59418;SDS011;45224;50.904;6.038;2022-12-07T05:16:14;50.30;;;23.17;;
59418;SDS011;45224;50.904;6.038;2022-12-07T05:17:45;48.83;;;22.33;;
59418;SDS011;45224;50.904;6.038;2022-12-07T05:19:16;49.33;;;22.37;;
59418;SDS011;45224;50.904;6.038;2022-12-07T05:20:47;45.75;;;21.27;;
59418;SDS011;45224;50.904;6.038;2022-12-07T05:22:17;46.90;;;22.73;;
59418;SDS011;45224;50.904;6.038;2022-12-07T05:23:48;43.27;;;21.27;;
59418;SDS011;45224;50.904;6.038;2022-12-07T05:25:18;44.27;;;20.97;;
59418;SDS011;45224;50.904;6.038;2022-12-07T05:26:49;44.53;;;22.10;;
59418;SDS011;45224;50.904;6.038;2022-12-07T05:28:19;45.43;;;21.80;;
59418;SDS011;45224;50.904;6.038;2022-12-07T05:29:50;47.40;;;22.83;;
59418;SDS011;45224;50.904;6.038;2022-12-07T05:31:21;43.70;;;21.63;;
59418;SDS011;45224;50.904;6.038;2022-12-07T05:34:23;40.97;;;19.70;;
59418;SDS011;45224;50.904;6.038;2022-12-07T05:35:54;47.40;;;21.17;;
59418;SDS011;45224;50.904;6.038;2022-12-07T05:37:24;43.53;;;20.10;;
59418;SDS011;45224;50.904;6.038;2022-12-07T05:38:55;44.87;;;21.67;;
59418;SDS011;45224;50.904;6.038;2022-12-07T05:40:25;44.00;;;21.57;;
59418;SDS011;45224;50.904;6.038;2022-12-07T05:41:55;39.83;;;20.40;;
59418;SDS011;45224;50.904;6.038;2022-12-07T05:43:44;47.20;;;21.33;;
59418;SDS011;45224;50.904;6.038;2022-12-07T05:45:15;46.77;;;20.80;;
59418;SDS011;45224;50.904;6.038;2022-12-07T05:46:45;43.27;;;20.97;;
59418;SDS011;45224;50.904;6.038;2022-12-07T05:48:16;40.63;;;19.90;;
59418;SDS011;45224;50.904;6.038;2022-12-07T05:49:46;46.17;;;20.70;;
59418;SDS011;45224;50.904;6.038;2022-12-07T05:51:16;43.00;;;21.10;;
59418;SDS011;45224;50.904;6.038;2022-12-07T05:52:47;45.13;;;20.67;;
59418;SDS011;45224;50.904;6.038;2022-12-07T05:54:18;39.93;;;20.07;;
59418;SDS011;45224;50.904;6.038;2022-12-07T05:55:48;48.50;;;22.87;;
59418;SDS011;45224;50.904;6.038;2022-12-07T05:57:19;46.17;;;20.60;;
59418;SDS011;45224;50.904;6.038;2022-12-07T05:58:49;47.27;;;21.20;;
59418;SDS011;45224;50.904;6.038;2022-12-07T06:00:39;42.75;;;20.40;;
59418;SDS011;45224;50.904;6.038;2022-12-07T06:02:10;47.53;;;21.57;;
59418;SDS011;45224;50.904;6.038;2022-12-07T06:03:43;42.58;;;21.40;;
59418;SDS011;45224;50.904;6.038;2022-12-07T06:05:14;44.15;;;21.55;;
59418;SDS011;45224;50.904;6.038;2022-12-07T06:06:44;50.17;;;22.00;;
59418;SDS011;45224;50.904;6.038;2022-12-07T06:08:15;50.42;;;23.67;;
59418;SDS011;45224;50.904;6.038;2022-12-07T06:09:45;48.87;;;21.87;;
59418;SDS011;45224;50.904;6.038;2022-12-07T06:11:16;45.87;;;22.23;;
59418;SDS011;45224;50.904;6.038;2022-12-07T06:13:05;49.00;;;21.60;;
59418;SDS011;45224;50.904;6.038;2022-12-07T06:14:35;44.43;;;20.40;;
59418;SDS011;45224;50.904;6.038;2022-12-07T06:16:06;55.85;;;23.55;;
59418;SDS011;45224;50.904;6.038;2022-12-07T06:17:37;45.53;;;21.73;;
59418;SDS011;45224;50.904;6.038;2022-12-07T06:19:07;50.50;;;22.37;;
59418;SDS011;45224;50.904;6.038;2022-12-07T06:20:38;47.40;;;21.50;;
59418;SDS011;45224;50.904;6.038;2022-12-07T06:22:08;49.73;;;22.70;;
59418;SDS011;45224;50.904;6.038;2022-12-07T06:23:41;52.88;;;23.45;;
59418;SDS011;45224;50.904;6.038;2022-12-07T06:25:11;47.13;;;22.83;;
59418;SDS011;45224;50.904;6.038;2022-12-07T06:26:42;49.43;;;22.47;;
59418;SDS011;45224;50.904;6.038;2022-12-07T06:28:12;46.37;;;21.60;;
59418;SDS011;45224;50.904;6.038;2022-12-07T06:29:43;46.40;;;22.07;;
59418;SDS011;45224;50.904;6.038;2022-12-07T06:31:13;45.03;;;21.33;;
59418;SDS011;45224;50.904;6.038;2022-12-07T06:32:44;52.90;;;24.30;;
59418;SDS011;45224;50.904;6.038;2022-12-07T06:34:16;46.23;;;21.37;;
59418;SDS011;45224;50.904;6.038;2022-12-07T06:35:48;48.28;;;22.63;;
59418;SDS011;45224;50.904;6.038;2022-12-07T06:37:19;49.43;;;22.37;;
59418;SDS011;45224;50.904;6.038;2022-12-07T06:38:49;52.37;;;24.23;;
59418;SDS011;45224;50.904;6.038;2022-12-07T06:40:20;46.47;;;21.43;;
59418;SDS011;45224;50.904;6.038;2022-12-07T06:41:50;48.73;;;22.57;;
59418;SDS011;45224;50.904;6.038;2022-12-07T06:44:52;46.83;;;21.85;;
59418;SDS011;45224;50.904;6.038;2022-12-07T06:46:23;44.93;;;21.53;;
59418;SDS011;45224;50.904;6.038;2022-12-07T06:47:53;47.17;;;22.33;;
59418;SDS011;45224;50.904;6.038;2022-12-07T06:49:24;48.23;;;21.80;;
59418;SDS011;45224;50.904;6.038;2022-12-07T06:50:54;51.70;;;22.57;;
59418;SDS011;45224;50.904;6.038;2022-12-07T06:52:25;51.27;;;23.47;;
59418;SDS011;45224;50.904;6.038;2022-12-07T06:53:55;53.17;;;23.30;;
59418;SDS011;45224;50.904;6.038;2022-12-07T06:55:26;51.08;;;23.13;;
59418;SDS011;45224;50.904;6.038;2022-12-07T06:56:56;58.27;;;24.60;;
59418;SDS011;45224;50.904;6.038;2022-12-07T06:58:27;58.70;;;23.43;;
59418;SDS011;45224;50.904;6.038;2022-12-07T06:59:57;59.77;;;24.93;;
59418;SDS011;45224;50.904;6.038;2022-12-07T07:01:28;47.23;;;22.13;;
59418;SDS011;45224;50.904;6.038;2022-12-07T07:02:58;57.93;;;24.30;;
59418;SDS011;45224;50.904;6.038;2022-12-07T07:04:29;47.27;;;22.43;;
59418;SDS011;45224;50.904;6.038;2022-12-07T07:05:59;55.03;;;25.50;;
59418;SDS011;45224;50.904;6.038;2022-12-07T07:07:30;48.93;;;22.20;;
59418;SDS011;45224;50.904;6.038;2022-12-07T07:09:00;47.40;;;21.13;;
59418;SDS011;45224;50.904;6.038;2022-12-07T07:10:30;50.93;;;23.53;;
59418;SDS011;45224;50.904;6.038;2022-12-07T07:12:01;55.43;;;24.23;;
59418;SDS011;45224;50.904;6.038;2022-12-07T07:13:32;52.70;;;24.80;;
59418;SDS011;45224;50.904;6.038;2022-12-07T07:15:03;61.90;;;25.33;;
59418;SDS011;45224;50.904;6.038;2022-12-07T07:16:33;47.92;;;23.70;;
59418;SDS011;45224;50.904;6.038;2022-12-07T07:18:04;59.87;;;26.23;;
59418;SDS011;45224;50.904;6.038;2022-12-07T07:19:34;50.90;;;22.67;;
59418;SDS011;45224;50.904;6.038;2022-12-07T07:21:05;50.03;;;23.27;;
59418;SDS011;45224;50.904;6.038;2022-12-07T07:22:35;51.50;;;23.20;;
59418;SDS011;45224;50.904;6.038;2022-12-07T07:24:06;45.87;;;20.90;;
59418;SDS011;45224;50.904;6.038;2022-12-07T07:25:36;66.78;;;25.48;;
59418;SDS011;45224;50.904;6.038;2022-12-07T07:27:07;55.27;;;23.87;;
59418;SDS011;45224;50.904;6.038;2022-12-07T07:28:39;48.63;;;22.27;;
59418;SDS011;45224;50.904;6.038;2022-12-07T07:30:09;51.37;;;23.50;;
59418;SDS011;45224;50.904;6.038;2022-12-07T07:31:40;56.55;;;24.38;;
59418;SDS011;45224;50.904;6.038;2022-12-07T07:33:10;50.07;;;23.53;;
59418;SDS011;45224;50.904;6.038;2022-12-07T07:34:41;54.05;;;23.38;;
59418;SDS011;45224;50.904;6.038;2022-12-07T07:36:12;52.80;;;23.80;;
59418;SDS011;45224;50.904;6.038;2022-12-07T07:37:42;55.57;;;24.67;;
59418;SDS011;45224;50.904;6.038;2022-12-07T07:39:13;57.60;;;24.93;;
59418;SDS011;45224;50.904;6.038;2022-12-07T07:40:43;51.87;;;22.70;;
59418;SDS011;45224;50.904;6.038;2022-12-07T07:42:14;52.33;;;23.25;;
59418;SDS011;45224;50.904;6.038;2022-12-07T07:43:46;62.67;;;26.17;;
59418;SDS011;45224;50.904;6.038;2022-12-07T07:45:17;55.47;;;25.57;;
59418;SDS011;45224;50.904;6.038;2022-12-07T07:46:48;53.10;;;23.15;;
59418;SDS011;45224;50.904;6.038;2022-12-07T07:48:19;54.23;;;23.70;;
59418;SDS011;45224;50.904;6.038;2022-12-07T07:49:49;49.13;;;22.70;;
59418;SDS011;45224;50.904;6.038;2022-12-07T07:51:19;55.67;;;23.80;;
59418;SDS011;45224;50.904;6.038;2022-12-07T07:52:50;51.10;;;22.60;;
59418;SDS011;45224;50.904;6.038;2022-12-07T07:54:21;52.17;;;21.85;;
59418;SDS011;45224;50.904;6.038;2022-12-07T07:55:52;46.57;;;21.73;;
59418;SDS011;45224;50.904;6.038;2022-12-07T07:57:23;52.22;;;20.17;;
59418;SDS011;45224;50.904;6.038;2022-12-07T07:58:54;48.25;;;22.55;;
59418;SDS011;45224;50.904;6.038;2022-12-07T08:00:25;48.28;;;21.98;;
59418;SDS011;45224;50.904;6.038;2022-12-07T08:01:55;49.20;;;23.03;;
59418;SDS011;45224;50.904;6.038;2022-12-07T08:03:26;44.50;;;20.87;;
59418;SDS011;45224;50.904;6.038;2022-12-07T08:04:56;49.27;;;22.27;;
59418;SDS011;45224;50.904;6.038;2022-12-07T08:06:27;46.83;;;20.80;;
59418;SDS011;45224;50.904;6.038;2022-12-07T08:07:57;47.80;;;21.10;;
59418;SDS011;45224;50.904;6.038;2022-12-07T08:09:28;45.70;;;21.33;;
59418;SDS011;45224;50.904;6.038;2022-12-07T08:10:58;43.93;;;20.77;;
59418;SDS011;45224;50.904;6.038;2022-12-07T08:12:31;46.15;;;22.17;;
59418;SDS011;45224;50.904;6.038;2022-12-07T08:14:06;43.22;;;20.92;;
59418;SDS011;45224;50.904;6.038;2022-12-07T08:15:37;41.77;;;21.13;;
59418;SDS011;45224;50.904;6.038;2022-12-07T08:17:08;43.42;;;19.88;;
59418;SDS011;45224;50.904;6.038;2022-12-07T08:18:39;40.57;;;20.10;;
59418;SDS011;45224;50.904;6.038;2022-12-07T08:20:11;40.45;;;20.33;;
59418;SDS011;45224;50.904;6.038;2022-12-07T08:21:41;42.40;;;20.67;;
59418;SDS011;45224;50.904;6.038;2022-12-07T08:23:12;41.33;;;19.53;;
59418;SDS011;45224;50.904;6.038;2022-12-07T08:24:42;39.07;;;19.33;;
59418;SDS011;45224;50.904;6.038;2022-12-07T08:26:14;36.30;;;17.73;;
59418;SDS011;45224;50.904;6.038;2022-12-07T08:27:46;37.50;;;18.38;;
59418;SDS011;45224;50.904;6.038;2022-12-07T08:29:17;41.30;;;20.75;;
59418;SDS011;45224;50.904;6.038;2022-12-07T08:30:47;39.30;;;19.87;;
59418;SDS011;45224;50.904;6.038;2022-12-07T08:32:18;37.23;;;19.50;;
59418;SDS011;45224;50.904;6.038;2022-12-07T08:33:48;38.00;;;18.30;;
59418;SDS011;45224;50.904;6.038;2022-12-07T08:35:19;36.50;;;17.03;;
59418;SDS011;45224;50.904;6.038;2022-12-07T08:36:49;38.23;;;17.63;;
59418;SDS011;45224;50.904;6.038;2022-12-07T08:38:19;36.70;;;17.40;;
59418;SDS011;45224;50.904;6.038;2022-12-07T08:39:50;37.27;;;17.93;;
59418;SDS011;45224;50.904;6.038;2022-12-07T08:41:20;40.37;;;19.00;;
59418;SDS011;45224;50.904;6.038;2022-12-07T08:42:51;42.53;;;20.17;;
59418;SDS011;45224;50.904;6.038;2022-12-07T08:44:22;40.57;;;19.90;;
59418;SDS011;45224;50.904;6.038;2022-12-07T08:48:04;52.47;;;21.90;;
59418;SDS011;45224;50.904;6.038;2022-12-07T08:49:41;35.78;;;17.80;;
59418;SDS011;45224;50.904;6.038;2022-12-07T08:51:16;45.20;;;20.85;;
59418;SDS011;45224;50.904;6.038;2022-12-07T08:52:51;47.95;;;20.67;;
59418;SDS011;45224;50.904;6.038;2022-12-07T08:54:24;47.15;;;21.92;;
59418;SDS011;45224;50.904;6.038;2022-12-07T08:55:55;51.47;;;23.80;;
59418;SDS011;45224;50.904;6.038;2022-12-07T08:57:27;47.72;;;22.98;;
59418;SDS011;45224;50.904;6.038;2022-12-07T08:58:58;47.72;;;22.65;;
59418;SDS011;45224;50.904;6.038;2022-12-07T09:00:28;45.20;;;20.77;;
59418;SDS011;45224;50.904;6.038;2022-12-07T09:01:59;48.57;;;21.17;;
59418;SDS011;45224;50.904;6.038;2022-12-07T09:03:30;52.13;;;22.80;;
59418;SDS011;45224;50.904;6.038;2022-12-07T09:05:00;43.17;;;20.13;;
59418;SDS011;45224;50.904;6.038;2022-12-07T09:06:31;44.10;;;20.63;;
59418;SDS011;45224;50.904;6.038;2022-12-07T09:08:01;52.23;;;23.43;;
59418;SDS011;45224;50.904;6.038;2022-12-07T09:09:32;46.33;;;20.90;;
59418;SDS011;45224;50.904;6.038;2022-12-07T09:11:02;48.87;;;22.53;;
59418;SDS011;45224;50.904;6.038;2022-12-07T09:12:33;50.07;;;23.30;;
59418;SDS011;45224;50.904;6.038;2022-12-07T09:14:03;55.13;;;24.10;;
59418;SDS011;45224;50.904;6.038;2022-12-07T09:15:34;53.73;;;23.40;;
59418;SDS011;45224;50.904;6.038;2022-12-07T09:17:06;57.27;;;23.40;;
59418;SDS011;45224;50.904;6.038;2022-12-07T09:18:40;54.03;;;24.27;;
59418;SDS011;45224;50.904;6.038;2022-12-07T09:20:12;50.90;;;24.30;;
59418;SDS011;45224;50.904;6.038;2022-12-07T09:21:42;53.33;;;23.35;;
59418;SDS011;45224;50.904;6.038;2022-12-07T09:23:13;53.40;;;24.10;;
59418;SDS011;45224;50.904;6.038;2022-12-07T09:24:43;50.00;;;22.53;;
59418;SDS011;45224;50.904;6.038;2022-12-07T09:26:15;48.55;;;24.02;;
59418;SDS011;45224;50.904;6.038;2022-12-07T09:27:46;53.83;;;22.67;;
59418;SDS011;45224;50.904;6.038;2022-12-07T09:29:16;49.13;;;23.13;;
59418;SDS011;45224;50.904;6.038;2022-12-07T09:30:47;47.30;;;21.83;;
59418;SDS011;45224;50.904;6.038;2022-12-07T09:32:19;48.05;;;23.25;;
59418;SDS011;45224;50.904;6.038;2022-12-07T09:33:59;52.40;;;23.92;;
59418;SDS011;45224;50.904;6.038;2022-12-07T09:35:30;55.42;;;25.42;;